createdAt,value
2024-02-26T00:00:59.833Z,68.95
2024-02-26T00:01:59.832Z,69.47
2024-02-26T00:02:59.930Z,69.06
2024-02-26T00:03:59.920Z,68.79
2024-02-26T00:04:59.992Z,69.00
2024-02-26T00:06:00.081Z,68.11
2024-02-26T00:07:00.041Z,68.74
2024-02-26T00:08:02.641Z,68.65
2024-02-26T00:09:00.119Z,68.60
2024-02-26T00:10:00.041Z,68.86
2024-02-26T00:11:00.077Z,68.80
2024-02-26T00:12:00.051Z,69.03
2024-02-26T00:13:00.023Z,68.50
2024-02-26T00:14:00.037Z,68.19
2024-02-26T00:15:00.084Z,67.78
2024-02-26T00:16:00.046Z,67.43
2024-02-26T00:17:00.039Z,67.45
2024-02-26T00:18:00.220Z,67.17
2024-02-26T00:19:00.212Z,67.08
2024-02-26T00:20:00.057Z,67.30
2024-02-26T00:21:00.132Z,67.65
2024-02-26T00:22:00.045Z,66.94
2024-02-26T00:23:00.056Z,67.45
2024-02-26T00:24:00.083Z,67.21
2024-02-26T00:25:00.060Z,66.26
2024-02-26T00:26:00.065Z,66.51
2024-02-26T00:27:00.068Z,66.70
2024-02-26T00:28:00.061Z,66.73
2024-02-26T00:29:00.058Z,66.56
2024-02-26T00:30:00.116Z,66.47
2024-02-26T00:31:00.074Z,65.54
2024-02-26T00:32:00.063Z,65.25
2024-02-26T00:33:00.227Z,64.74
2024-02-26T00:34:00.196Z,64.65
2024-02-26T00:35:00.157Z,64.82
2024-02-26T00:36:00.209Z,65.23
2024-02-26T00:37:00.213Z,65.51
2024-02-26T00:38:00.281Z,65.20
2024-02-26T00:39:00.364Z,65.16
2024-02-26T00:40:00.389Z,64.67
2024-02-26T00:41:00.491Z,64.65
2024-02-26T00:42:00.563Z,64.49
2024-02-26T00:43:00.557Z,64.37
2024-02-26T00:44:00.571Z,64.14
2024-02-26T00:45:00.693Z,64.08
2024-02-26T00:46:00.640Z,63.63
2024-02-26T00:47:00.746Z,63.44
2024-02-26T00:48:00.742Z,62.49
2024-02-26T00:49:00.866Z,62.93
2024-02-26T00:50:00.840Z,63.24
2024-02-26T00:51:00.798Z,63.84
2024-02-26T00:52:00.755Z,63.49
2024-02-26T00:53:00.812Z,62.85
2024-02-26T00:54:00.788Z,63.18
2024-02-26T00:55:00.786Z,64.25
2024-02-26T00:56:00.778Z,64.30
2024-02-26T00:57:00.786Z,64.08
2024-02-26T00:58:00.755Z,63.82
2024-02-26T00:59:00.814Z,63.86
2024-02-26T01:00:00.918Z,63.53
2024-02-26T01:01:00.815Z,63.36
2024-02-26T01:02:00.784Z,62.88
2024-02-26T01:03:00.848Z,63.16
2024-02-26T01:04:00.892Z,65.05
2024-02-26T01:05:00.782Z,66.42
2024-02-26T01:06:00.977Z,65.78
2024-02-26T01:07:00.902Z,66.38
2024-02-26T01:08:00.917Z,66.23
2024-02-26T01:09:00.806Z,66.34
2024-02-26T01:10:00.786Z,66.07
2024-02-26T01:11:00.850Z,65.92
2024-02-26T01:12:00.805Z,67.11
2024-02-26T01:13:00.813Z,67.37
2024-02-26T01:14:00.781Z,66.22
2024-02-26T01:15:00.838Z,65.73
2024-02-26T01:16:00.837Z,65.66
2024-02-26T01:17:00.831Z,65.80
2024-02-26T01:18:00.870Z,65.61
2024-02-26T01:19:01.036Z,66.22
2024-02-26T01:20:00.885Z,65.78
2024-02-26T01:21:00.856Z,65.52
2024-02-26T01:22:00.803Z,65.62
2024-02-26T01:23:00.840Z,66.38
2024-02-26T01:24:00.845Z,66.62
2024-02-26T01:25:00.883Z,66.83
2024-02-26T01:26:00.907Z,67.46
2024-02-26T01:27:00.945Z,67.87
2024-02-26T01:28:00.947Z,67.06
2024-02-26T01:29:00.928Z,67.16
2024-02-26T01:30:00.977Z,66.78
2024-02-26T01:31:00.975Z,65.63
2024-02-26T01:32:00.927Z,65.76
2024-02-26T01:33:01.169Z,66.05
2024-02-26T01:34:01.131Z,66.49
2024-02-26T01:35:00.945Z,66.27
2024-02-26T01:36:00.954Z,66.42
2024-02-26T01:37:00.982Z,66.33
2024-02-26T01:38:00.939Z,65.82
2024-02-26T01:39:00.945Z,65.50
2024-02-26T01:40:00.939Z,65.81
2024-02-26T01:41:00.942Z,65.28
2024-02-26T01:42:00.970Z,65.06
2024-02-26T01:43:00.946Z,64.90
2024-02-26T01:44:00.958Z,64.94
2024-02-26T01:45:01.082Z,64.77
2024-02-26T01:46:00.959Z,64.58
2024-02-26T01:47:00.957Z,64.87
2024-02-26T01:48:01.092Z,64.91
2024-02-26T01:49:01.122Z,64.71
2024-02-26T01:50:01.032Z,65.41
2024-02-26T01:51:01.049Z,65.52
2024-02-26T01:52:00.958Z,65.81
2024-02-26T01:53:00.965Z,66.03
2024-02-26T01:54:01.007Z,66.50
2024-02-26T01:55:00.966Z,66.27
2024-02-26T01:56:00.982Z,65.59
2024-02-26T01:57:01.040Z,65.77
2024-02-26T01:58:00.990Z,65.51
2024-02-26T01:59:00.992Z,65.67
2024-02-26T02:00:01.078Z,64.94
2024-02-26T02:01:01.030Z,64.65
2024-02-26T02:02:01.000Z,64.53
2024-02-26T02:03:01.073Z,64.81
2024-02-26T02:04:01.029Z,64.63
2024-02-26T02:05:01.029Z,64.52
2024-02-26T02:06:01.122Z,64.56
2024-02-26T02:07:01.136Z,63.79
2024-02-26T02:08:01.028Z,64.30
2024-02-26T02:09:01.021Z,64.69
2024-02-26T02:10:01.055Z,64.38
2024-02-26T02:11:01.047Z,63.70
2024-02-26T02:12:01.051Z,63.62
2024-02-26T02:13:01.025Z,64.16
2024-02-26T02:14:01.047Z,63.87
2024-02-26T02:15:01.049Z,63.33
2024-02-26T02:16:01.030Z,63.45
2024-02-26T02:17:01.056Z,62.50
2024-02-26T02:18:01.082Z,62.43
2024-02-26T02:19:01.136Z,62.61
2024-02-26T02:20:01.101Z,62.31
2024-02-26T02:21:01.085Z,62.32
2024-02-26T02:22:01.049Z,63.10
2024-02-26T02:23:01.082Z,62.89
2024-02-26T02:24:01.066Z,63.00
2024-02-26T02:25:01.068Z,62.71
2024-02-26T02:26:01.039Z,62.09
2024-02-26T02:27:01.051Z,62.46
2024-02-26T02:28:01.026Z,62.38
2024-02-26T02:29:01.033Z,63.41
2024-02-26T02:30:01.098Z,63.62
2024-02-26T02:31:01.037Z,63.51
2024-02-26T02:32:01.067Z,63.32
2024-02-26T02:33:01.143Z,63.91
2024-02-26T02:34:01.144Z,63.78
2024-02-26T02:35:01.153Z,63.45
2024-02-26T02:36:01.085Z,62.79
2024-02-26T02:37:01.056Z,63.17
2024-02-26T02:38:01.056Z,62.84
2024-02-26T02:39:01.077Z,62.67
2024-02-26T02:40:01.080Z,62.68
2024-02-26T02:41:01.065Z,63.24
2024-02-26T02:42:01.090Z,64.78
2024-02-26T02:43:01.084Z,65.15
2024-02-26T02:44:01.091Z,65.63
2024-02-26T02:45:01.143Z,65.97
2024-02-26T02:46:01.087Z,66.44
2024-02-26T02:47:01.068Z,66.45
2024-02-26T02:48:01.248Z,66.17
2024-02-26T02:49:01.200Z,66.33
2024-02-26T02:50:01.126Z,65.90
2024-02-26T02:51:01.153Z,65.61
2024-02-26T02:52:01.102Z,66.29
2024-02-26T02:53:01.093Z,65.45
2024-02-26T02:54:01.100Z,65.76
2024-02-26T02:55:01.094Z,65.49
2024-02-26T02:56:01.083Z,65.41
2024-02-26T02:57:01.130Z,64.75
2024-02-26T02:58:01.104Z,64.78
2024-02-26T02:59:01.091Z,64.86
2024-02-26T03:00:01.194Z,64.67
2024-02-26T03:01:01.205Z,64.80
2024-02-26T03:02:01.089Z,64.47
2024-02-26T03:03:01.142Z,64.73
2024-02-26T03:04:01.186Z,65.37
2024-02-26T03:05:01.275Z,65.68
2024-02-26T03:06:01.222Z,66.21
2024-02-26T03:07:01.334Z,65.63
2024-02-26T03:08:01.149Z,65.72
2024-02-26T03:09:01.129Z,65.17
2024-02-26T03:10:01.137Z,65.04
2024-02-26T03:11:01.165Z,64.69
2024-02-26T03:12:01.141Z,65.34
2024-02-26T03:13:01.122Z,65.61
2024-02-26T03:14:01.150Z,65.35
2024-02-26T03:15:01.188Z,65.45
2024-02-26T03:16:01.177Z,64.82
2024-02-26T03:17:01.127Z,66.05
2024-02-26T03:18:01.565Z,65.64
2024-02-26T03:19:01.211Z,65.86
2024-02-26T03:20:01.158Z,65.20
2024-02-26T03:21:01.217Z,66.04
2024-02-26T03:22:01.147Z,65.90
2024-02-26T03:23:01.152Z,65.64
2024-02-26T03:24:01.285Z,65.64
2024-02-26T03:25:01.186Z,66.00
2024-02-26T03:26:01.155Z,65.64
2024-02-26T03:27:01.212Z,65.94
2024-02-26T03:28:01.228Z,66.31
2024-02-26T03:29:01.171Z,66.87
2024-02-26T03:30:01.218Z,65.90
2024-02-26T03:31:01.174Z,65.75
2024-02-26T03:32:01.179Z,66.27
2024-02-26T03:33:01.370Z,66.52
2024-02-26T03:34:01.396Z,66.74
2024-02-26T03:35:01.278Z,66.60
2024-02-26T03:36:01.263Z,66.72
2024-02-26T03:37:01.193Z,66.41
2024-02-26T03:38:01.200Z,66.09
2024-02-26T03:39:01.253Z,66.52
2024-02-26T03:40:01.225Z,67.05
2024-02-26T03:41:01.252Z,66.61
2024-02-26T03:42:01.234Z,65.97
2024-02-26T03:43:01.221Z,66.22
2024-02-26T03:44:01.207Z,65.43
2024-02-26T03:45:01.261Z,65.07
2024-02-26T03:46:01.282Z,65.72
2024-02-26T03:47:01.209Z,65.69
2024-02-26T03:48:01.417Z,66.38
2024-02-26T03:49:01.407Z,66.73
2024-02-26T03:50:01.248Z,66.45
2024-02-26T03:51:01.270Z,66.32
2024-02-26T03:52:01.256Z,66.81
2024-02-26T03:53:01.244Z,66.36
2024-02-26T03:54:01.324Z,65.92
2024-02-26T03:55:01.254Z,65.62
2024-02-26T03:56:01.269Z,65.55
2024-02-26T03:57:01.263Z,65.71
2024-02-26T03:58:01.257Z,64.95
2024-02-26T03:59:01.248Z,64.87
2024-02-26T04:00:01.346Z,65.23
2024-02-26T04:01:01.288Z,64.87
2024-02-26T04:02:01.272Z,64.79
2024-02-26T04:03:01.317Z,65.23
2024-02-26T04:04:01.304Z,65.77
2024-02-26T04:05:01.358Z,66.59
2024-02-26T04:06:01.343Z,66.61
2024-02-26T04:07:01.508Z,67.32
2024-02-26T04:08:01.285Z,67.19
2024-02-26T04:09:01.324Z,67.65
2024-02-26T04:10:03.266Z,67.33
2024-02-26T04:11:01.333Z,66.91
2024-02-26T04:12:01.318Z,66.83
2024-02-26T04:13:01.289Z,66.81
2024-02-26T04:14:01.299Z,66.35
2024-02-26T04:15:01.352Z,66.28
2024-02-26T04:16:01.315Z,66.81
2024-02-26T04:17:01.317Z,66.95
2024-02-26T04:18:01.437Z,66.58
2024-02-26T04:19:01.353Z,66.32
2024-02-26T04:20:01.327Z,66.13
2024-02-26T04:21:01.366Z,65.53
2024-02-26T04:22:01.336Z,65.03
2024-02-26T04:23:01.331Z,65.40
2024-02-26T04:24:01.361Z,65.32
2024-02-26T04:25:01.367Z,65.26
2024-02-26T04:26:01.337Z,65.10
2024-02-26T04:27:01.351Z,65.46
2024-02-26T04:28:01.341Z,65.46
2024-02-26T04:29:01.347Z,65.49
2024-02-26T04:30:01.391Z,65.13
2024-02-26T04:31:01.344Z,64.87
2024-02-26T04:32:01.362Z,65.18
2024-02-26T04:33:01.494Z,64.56
2024-02-26T04:34:01.483Z,64.71
2024-02-26T04:35:01.554Z,64.84
2024-02-26T04:36:01.616Z,64.81
2024-02-26T04:37:01.625Z,64.35
2024-02-26T04:38:01.677Z,64.39
2024-02-26T04:39:01.805Z,64.33
2024-02-26T04:40:01.929Z,63.66
2024-02-26T04:41:01.847Z,64.14
2024-02-26T04:42:01.870Z,63.63
2024-02-26T04:43:01.886Z,63.83
2024-02-26T04:44:01.945Z,63.91
2024-02-26T04:45:02.117Z,64.54
2024-02-26T04:46:02.059Z,65.48
2024-02-26T04:47:02.066Z,64.97
2024-02-26T04:48:02.263Z,65.12
2024-02-26T04:49:02.310Z,65.46
2024-02-26T04:50:02.198Z,64.69
2024-02-26T04:51:02.182Z,64.87
2024-02-26T04:52:02.161Z,64.64
2024-02-26T04:53:02.164Z,64.43
2024-02-26T04:54:02.241Z,64.14
2024-02-26T04:55:10.163Z,64.11
2024-02-26T04:56:10.161Z,64.86
2024-02-26T04:57:10.237Z,65.30
2024-02-26T04:58:10.280Z,66.01
2024-02-26T04:59:10.381Z,66.47
2024-02-26T05:00:10.450Z,66.66
2024-02-26T05:01:10.463Z,66.87
2024-02-26T05:02:10.448Z,67.05
2024-02-26T05:03:10.485Z,67.35
2024-02-26T05:04:10.564Z,67.25
2024-02-26T05:05:10.538Z,67.08
2024-02-26T05:06:10.510Z,66.71
2024-02-26T05:07:10.513Z,66.63
2024-02-26T05:08:10.422Z,66.16
2024-02-26T05:09:10.475Z,65.87
2024-02-26T05:10:10.437Z,66.52
2024-02-26T05:11:10.488Z,66.91
2024-02-26T05:12:10.462Z,67.81
2024-02-26T05:13:10.426Z,67.93
2024-02-26T05:14:10.426Z,68.21
2024-02-26T05:15:10.542Z,68.02
2024-02-26T05:16:10.461Z,68.76
2024-02-26T05:17:10.455Z,68.34
2024-02-26T05:18:10.565Z,67.74
2024-02-26T05:19:10.577Z,66.98
2024-02-26T05:20:10.462Z,66.44
2024-02-26T05:21:10.568Z,65.97
2024-02-26T05:22:10.437Z,65.72
2024-02-26T05:23:10.439Z,65.98
2024-02-26T05:24:10.510Z,65.94
2024-02-26T05:25:10.443Z,65.49
2024-02-26T05:26:10.455Z,65.43
2024-02-26T05:27:10.506Z,66.08
2024-02-26T05:28:10.514Z,66.13
2024-02-26T05:29:10.477Z,66.27
2024-02-26T05:30:10.513Z,65.73
2024-02-26T05:31:10.490Z,66.07
2024-02-26T05:32:10.481Z,65.57
2024-02-26T05:33:10.567Z,65.34
2024-02-26T05:34:10.570Z,65.09
2024-02-26T05:35:10.580Z,65.82
2024-02-26T05:36:10.488Z,65.32
2024-02-26T05:37:10.486Z,65.42
2024-02-26T05:38:10.478Z,65.17
2024-02-26T05:39:13.777Z,64.94
2024-02-26T05:40:11.550Z,65.24
2024-02-26T05:41:10.512Z,65.98
2024-02-26T05:42:10.521Z,66.87
2024-02-26T05:43:10.515Z,67.54
2024-02-26T05:44:10.489Z,68.46
2024-02-26T05:45:10.547Z,68.47
2024-02-26T05:46:10.514Z,68.55
2024-02-26T05:47:10.493Z,68.77
2024-02-26T05:48:10.590Z,69.33
2024-02-26T05:49:10.560Z,69.02
2024-02-26T05:50:10.525Z,68.31
2024-02-26T05:51:10.587Z,67.47
2024-02-26T05:52:10.525Z,66.85
2024-02-26T05:53:10.525Z,66.89
2024-02-26T05:54:10.580Z,67.42
2024-02-26T05:55:10.544Z,67.53
2024-02-26T05:56:10.542Z,67.66
2024-02-26T05:57:10.577Z,67.45
2024-02-26T05:58:10.525Z,67.29
2024-02-26T05:59:10.607Z,66.80
2024-02-26T06:00:13.310Z,66.45
2024-02-26T06:01:10.553Z,66.15
2024-02-26T06:02:10.603Z,66.47
2024-02-26T06:03:10.599Z,66.53
2024-02-26T06:04:10.599Z,65.88
2024-02-26T06:05:10.670Z,66.31
2024-02-26T06:06:10.616Z,66.22
2024-02-26T06:07:10.656Z,67.33
2024-02-26T06:08:10.570Z,67.01
2024-02-26T06:09:10.602Z,66.72
2024-02-26T06:10:10.568Z,66.67
2024-02-26T06:11:10.635Z,66.67
2024-02-26T06:12:10.646Z,66.53
2024-02-26T06:13:10.650Z,66.60
2024-02-26T06:14:10.573Z,66.52
2024-02-26T06:15:10.627Z,66.65
2024-02-26T06:16:10.562Z,66.48
2024-02-26T06:17:10.592Z,65.82
2024-02-26T06:18:10.691Z,66.24
2024-02-26T06:19:13.699Z,65.68
2024-02-26T06:20:10.615Z,65.47
2024-02-26T06:21:10.628Z,65.39
2024-02-26T06:22:10.576Z,66.03
2024-02-26T06:23:10.588Z,65.90
2024-02-26T06:24:10.624Z,66.87
2024-02-26T06:25:10.589Z,67.96
2024-02-26T06:26:10.584Z,68.11
2024-02-26T06:27:10.623Z,67.73
2024-02-26T06:28:10.581Z,67.11
2024-02-26T06:29:10.599Z,66.68
2024-02-26T06:30:10.661Z,65.84
2024-02-26T06:31:10.691Z,66.34
2024-02-26T06:32:10.632Z,66.66
2024-02-26T06:33:10.845Z,67.13
2024-02-26T06:34:10.895Z,67.59
2024-02-26T06:35:10.917Z,67.06
2024-02-26T06:36:10.700Z,67.72
2024-02-26T06:37:10.612Z,67.25
2024-02-26T06:38:10.967Z,67.82
2024-02-26T06:39:10.667Z,68.09
2024-02-26T06:40:10.655Z,68.41
2024-02-26T06:41:11.189Z,67.50
2024-02-26T06:42:10.722Z,67.05
2024-02-26T06:43:11.209Z,66.78
2024-02-26T06:44:10.661Z,66.96
2024-02-26T06:45:10.653Z,66.62
2024-02-26T06:46:10.718Z,66.80
2024-02-26T06:47:10.669Z,66.40
2024-02-26T06:48:10.845Z,66.78
2024-02-26T06:49:10.853Z,66.40
2024-02-26T06:50:10.748Z,65.92
2024-02-26T06:51:10.680Z,65.29
2024-02-26T06:52:10.666Z,65.58
2024-02-26T06:53:10.677Z,65.61
2024-02-26T06:54:10.832Z,65.91
2024-02-26T06:55:10.649Z,66.28
2024-02-26T06:56:10.687Z,66.08
2024-02-26T06:57:10.778Z,66.05
2024-02-26T06:58:10.784Z,65.58
2024-02-26T06:59:10.893Z,65.92
2024-02-26T07:00:11.121Z,65.46
2024-02-26T07:01:11.280Z,65.83
2024-02-26T07:02:11.016Z,66.36
2024-02-26T07:03:11.084Z,66.39
2024-02-26T07:04:11.193Z,67.63
2024-02-26T07:05:11.233Z,67.50
2024-02-26T07:06:11.266Z,67.17
2024-02-26T07:07:11.202Z,66.92
2024-02-26T07:08:11.277Z,66.98
2024-02-26T07:09:11.389Z,67.40
2024-02-26T07:10:11.268Z,67.13
2024-02-26T07:11:11.353Z,66.35
2024-02-26T07:12:11.493Z,67.47
2024-02-26T07:13:11.517Z,66.60
2024-02-26T07:14:11.486Z,66.78
2024-02-26T07:15:11.619Z,66.59
2024-02-26T07:16:13.401Z,66.69
2024-02-26T07:17:11.583Z,66.42
2024-02-26T07:18:11.856Z,66.29
2024-02-26T07:19:11.701Z,66.10
2024-02-26T07:20:12.378Z,65.91
2024-02-26T07:21:11.742Z,65.63
2024-02-26T07:22:11.762Z,64.83
2024-02-26T07:23:11.789Z,64.50
2024-02-26T07:24:11.856Z,64.17
2024-02-26T07:25:11.898Z,63.86
2024-02-26T07:26:12.196Z,64.43
2024-02-26T07:27:11.981Z,64.19
2024-02-26T07:28:13.696Z,63.46
2024-02-26T07:29:12.028Z,63.62
2024-02-26T07:30:12.155Z,63.61
2024-02-26T07:31:12.075Z,63.71
2024-02-26T07:32:12.080Z,64.60
2024-02-26T07:33:12.253Z,64.42
2024-02-26T07:34:12.384Z,64.76
2024-02-26T07:35:12.239Z,64.81
2024-02-26T07:36:12.300Z,65.29
2024-02-26T07:37:12.266Z,65.21
2024-02-26T07:38:22.731Z,65.20
2024-02-26T07:39:13.397Z,65.38
2024-02-26T07:40:12.343Z,65.48
2024-02-26T07:41:12.345Z,66.04
2024-02-26T07:42:12.417Z,66.40
2024-02-26T07:43:12.359Z,65.72
2024-02-26T07:44:13.289Z,65.89
2024-02-26T07:45:12.514Z,65.95
2024-02-26T07:46:12.709Z,65.69
2024-02-26T07:47:12.401Z,65.47
2024-02-26T07:48:12.602Z,65.81
2024-02-26T07:49:12.475Z,66.20
2024-02-26T07:50:12.576Z,66.63
2024-02-26T07:51:12.455Z,67.11
2024-02-26T07:52:12.421Z,67.29
2024-02-26T07:53:12.423Z,67.56
2024-02-26T07:54:12.457Z,67.30
2024-02-26T07:55:12.439Z,67.69
2024-02-26T07:56:12.437Z,67.28
2024-02-26T07:57:12.472Z,66.84
2024-02-26T07:58:12.439Z,67.52
2024-02-26T07:59:12.432Z,67.34
2024-02-26T08:00:12.535Z,67.08
2024-02-26T08:01:12.577Z,67.16
2024-02-26T08:02:12.609Z,68.29
2024-02-26T08:03:12.794Z,67.71
2024-02-26T08:04:12.707Z,67.11
2024-02-26T08:05:12.840Z,66.31
2024-02-26T08:06:12.860Z,65.94
2024-02-26T08:07:12.867Z,65.42
2024-02-26T08:08:12.922Z,64.91
2024-02-26T08:09:12.913Z,65.23
2024-02-26T08:10:12.864Z,64.65
2024-02-26T08:11:12.921Z,64.44
2024-02-26T08:12:12.906Z,64.18
2024-02-26T08:13:12.889Z,65.28
2024-02-26T08:14:13.742Z,65.34
2024-02-26T08:15:13.000Z,65.97
2024-02-26T08:16:13.020Z,65.88
2024-02-26T08:17:12.992Z,65.43
2024-02-26T08:18:13.061Z,65.23
2024-02-26T08:19:13.121Z,65.53
2024-02-26T08:20:13.126Z,65.30
2024-02-26T08:21:13.286Z,64.88
2024-02-26T08:22:13.162Z,64.51
2024-02-26T08:23:13.159Z,64.34
2024-02-26T08:24:13.289Z,63.63
2024-02-26T08:25:13.237Z,63.67
2024-02-26T08:26:13.328Z,64.10
2024-02-26T08:27:13.457Z,63.84
2024-02-26T08:28:13.299Z,64.34
2024-02-26T08:29:13.294Z,64.62
2024-02-26T08:30:13.365Z,65.46
2024-02-26T08:31:13.373Z,66.13
2024-02-26T08:32:13.407Z,65.76
2024-02-26T08:33:13.548Z,65.21
2024-02-26T08:34:13.764Z,65.07
2024-02-26T08:35:13.703Z,64.51
2024-02-26T08:36:13.635Z,65.66
2024-02-26T08:37:13.568Z,65.25
2024-02-26T08:38:13.649Z,64.97
2024-02-26T08:39:13.765Z,64.61
2024-02-26T08:40:14.736Z,64.18
2024-02-26T08:41:14.216Z,63.83
2024-02-26T08:42:13.931Z,64.54
2024-02-26T08:43:13.907Z,63.81
2024-02-26T08:44:13.945Z,63.32
2024-02-26T08:45:14.062Z,63.37
2024-02-26T08:46:14.226Z,62.65
2024-02-26T08:47:14.161Z,61.74
2024-02-26T08:48:14.264Z,61.05
2024-02-26T08:49:14.281Z,60.78
2024-02-26T08:50:14.157Z,60.88
2024-02-26T08:51:14.244Z,61.47
2024-02-26T08:52:14.267Z,61.85
2024-02-26T08:53:15.040Z,61.77
2024-02-26T08:54:14.310Z,60.91
2024-02-26T08:55:14.224Z,60.33
2024-02-26T08:56:14.758Z,60.09
2024-02-26T08:57:14.244Z,59.13
2024-02-26T08:58:14.244Z,59.11
2024-02-26T08:59:14.277Z,59.38
2024-02-26T09:00:14.297Z,59.07
2024-02-26T09:01:14.370Z,58.80
2024-02-26T09:02:14.239Z,60.45
2024-02-26T09:03:14.292Z,60.35
2024-02-26T09:04:15.265Z,60.59
2024-02-26T09:05:14.329Z,60.40
2024-02-26T09:06:14.839Z,60.97
2024-02-26T09:07:14.855Z,60.79
2024-02-26T09:08:14.288Z,60.40
2024-02-26T09:09:14.291Z,60.93
2024-02-26T09:10:14.268Z,61.59
2024-02-26T09:11:14.295Z,61.11
2024-02-26T09:12:14.443Z,61.38
2024-02-26T09:13:14.263Z,60.63
2024-02-26T09:14:14.257Z,60.70
2024-02-26T09:15:14.421Z,60.95
2024-02-26T09:16:14.752Z,61.21
2024-02-26T09:17:14.263Z,61.62
2024-02-26T09:18:14.604Z,61.21
2024-02-26T09:19:14.377Z,61.42
2024-02-26T09:20:14.777Z,61.58
2024-02-26T09:21:14.761Z,61.66
2024-02-26T09:22:16.821Z,62.25
2024-02-26T09:23:14.419Z,60.61
2024-02-26T09:24:14.292Z,60.49
2024-02-26T09:25:14.271Z,61.04
2024-02-26T09:26:14.296Z,60.81
2024-02-26T09:27:14.844Z,60.80
2024-02-26T09:28:14.316Z,60.59
2024-02-26T09:29:14.277Z,60.85
2024-02-26T09:30:14.363Z,60.29
2024-02-26T09:31:14.722Z,60.68
2024-02-26T09:32:14.321Z,61.36
2024-02-26T09:33:14.392Z,61.59
2024-02-26T09:34:14.582Z,60.69
2024-02-26T09:35:14.374Z,60.30
2024-02-26T09:36:14.454Z,59.84
2024-02-26T09:37:20.990Z,59.36
2024-02-26T09:38:14.323Z,59.77
2024-02-26T09:39:14.779Z,60.06
2024-02-26T09:40:14.366Z,60.58
2024-02-26T09:41:14.385Z,60.23
2024-02-26T09:42:14.323Z,58.58
2024-02-26T09:43:14.351Z,58.25
2024-02-26T09:44:14.330Z,58.63
2024-02-26T09:45:14.360Z,59.09
2024-02-26T09:46:14.826Z,58.71
2024-02-26T09:47:14.318Z,59.78
2024-02-26T09:48:14.492Z,60.35
2024-02-26T09:49:14.384Z,59.61
2024-02-26T09:50:14.408Z,60.11
2024-02-26T09:51:14.371Z,59.77
2024-02-26T09:52:14.344Z,59.79
2024-02-26T09:53:14.369Z,59.07
2024-02-26T09:54:14.366Z,58.83
2024-02-26T09:55:14.371Z,58.68
2024-02-26T09:56:14.409Z,58.18
2024-02-26T09:57:14.348Z,58.87
2024-02-26T09:58:14.424Z,58.77
2024-02-26T09:59:14.359Z,58.53
2024-02-26T10:00:14.370Z,59.09
2024-02-26T10:01:14.395Z,59.02
2024-02-26T10:02:14.416Z,58.38
2024-02-26T10:03:14.395Z,58.92
2024-02-26T10:04:14.441Z,58.25
2024-02-26T10:05:14.342Z,57.59
2024-02-26T10:06:14.561Z,57.48
2024-02-26T10:07:14.600Z,57.87
2024-02-26T10:08:14.398Z,57.89
2024-02-26T10:09:14.403Z,57.34
2024-02-26T10:10:14.394Z,56.52
2024-02-26T10:11:14.417Z,55.51
2024-02-26T10:12:14.527Z,55.45
2024-02-26T10:13:14.368Z,55.60
2024-02-26T10:14:14.355Z,55.87
2024-02-26T10:15:14.409Z,55.58
2024-02-26T10:16:14.809Z,55.66
2024-02-26T10:17:14.400Z,55.85
2024-02-26T10:18:14.503Z,55.70
2024-02-26T10:19:14.837Z,55.26
2024-02-26T10:20:14.690Z,54.96
2024-02-26T10:21:14.734Z,54.37
2024-02-26T10:22:14.714Z,53.60
2024-02-26T10:23:14.768Z,53.13
2024-02-26T10:24:14.763Z,52.61
2024-02-26T10:25:14.826Z,52.15
2024-02-26T10:26:14.834Z,51.66
2024-02-26T10:27:14.870Z,51.27
2024-02-26T10:28:14.846Z,51.27
2024-02-26T10:29:14.878Z,50.84
2024-02-26T10:30:17.543Z,50.83
2024-02-26T10:31:14.889Z,51.21
2024-02-26T10:32:14.938Z,50.99
2024-02-26T10:33:14.960Z,50.58
2024-02-26T10:34:15.463Z,50.25
2024-02-26T10:35:15.022Z,51.29
2024-02-26T10:36:15.684Z,49.66
2024-02-26T10:37:14.911Z,50.24
2024-02-26T10:38:14.999Z,48.37
2024-02-26T10:39:14.945Z,49.65
2024-02-26T10:40:14.906Z,49.62
2024-02-26T10:41:15.292Z,51.06
2024-02-26T10:42:14.990Z,50.85
2024-02-26T10:43:14.925Z,51.59
2024-02-26T10:44:17.780Z,50.85
2024-02-26T10:45:15.019Z,50.76
2024-02-26T10:46:14.996Z,50.65
2024-02-26T10:47:14.914Z,49.27
2024-02-26T10:48:15.087Z,49.96
2024-02-26T10:49:15.037Z,49.21
2024-02-26T10:50:15.025Z,48.44
2024-02-26T10:51:14.980Z,48.25
2024-02-26T10:52:14.919Z,48.53
2024-02-26T10:53:18.036Z,48.58
2024-02-26T10:54:15.048Z,48.68
2024-02-26T10:55:15.025Z,46.71
2024-02-26T10:56:14.954Z,46.40
2024-02-26T10:57:15.149Z,47.24
2024-02-26T10:58:14.927Z,46.62
2024-02-26T10:59:14.938Z,46.33
2024-02-26T11:00:14.994Z,44.60
2024-02-26T11:01:15.022Z,44.06
2024-02-26T11:02:14.923Z,44.73
2024-02-26T11:03:15.429Z,44.64
2024-02-26T11:04:14.975Z,45.21
2024-02-26T11:05:15.002Z,44.62
2024-02-26T11:06:15.178Z,44.49
2024-02-26T11:07:15.064Z,44.14
2024-02-26T11:08:15.047Z,44.80
2024-02-26T11:09:15.031Z,44.19
2024-02-26T11:10:15.167Z,44.54
2024-02-26T11:11:14.954Z,44.40
2024-02-26T11:12:15.120Z,45.44
2024-02-26T11:13:15.748Z,45.07
2024-02-26T11:14:15.207Z,43.40
2024-02-26T11:15:15.046Z,44.34
2024-02-26T11:16:14.952Z,43.43
2024-02-26T11:17:14.976Z,44.80
2024-02-26T11:18:15.011Z,44.72
2024-02-26T11:19:15.197Z,44.85
2024-02-26T11:20:15.796Z,45.76
2024-02-26T11:21:15.378Z,44.56
2024-02-26T11:22:21.200Z,43.16
2024-02-26T11:23:15.968Z,44.71
2024-02-26T11:24:15.110Z,44.45
2024-02-26T11:25:14.968Z,43.42
2024-02-26T11:26:15.047Z,46.17
2024-02-26T11:27:15.259Z,44.64
2024-02-26T11:28:14.992Z,45.20
2024-02-26T11:29:15.075Z,45.97
2024-02-26T11:30:15.044Z,44.80
2024-02-26T11:31:14.976Z,44.59
2024-02-26T11:32:16.761Z,45.27
2024-02-26T11:33:15.097Z,45.08
2024-02-26T11:34:15.138Z,44.82
2024-02-26T11:35:15.093Z,45.89
2024-02-26T11:36:15.087Z,45.63
2024-02-26T11:37:15.273Z,45.77
2024-02-26T11:38:15.172Z,46.13
2024-02-26T11:39:15.319Z,47.59
2024-02-26T11:40:15.251Z,47.27
2024-02-26T11:41:15.275Z,48.56
2024-02-26T11:42:15.886Z,48.65
2024-02-26T11:43:15.367Z,49.09
2024-02-26T11:44:15.387Z,48.57
2024-02-26T11:45:15.462Z,50.36
2024-02-26T11:46:15.493Z,50.79
2024-02-26T11:47:15.651Z,49.04
2024-02-26T11:48:15.765Z,48.81
2024-02-26T11:49:16.405Z,51.54
2024-02-26T11:50:15.674Z,49.69
2024-02-26T11:51:15.861Z,49.39
2024-02-26T11:52:15.661Z,48.26
2024-02-26T11:53:15.697Z,50.85
2024-02-26T11:54:15.787Z,48.22
2024-02-26T11:55:15.794Z,45.98
2024-02-26T11:56:15.775Z,47.40
2024-02-26T11:57:15.946Z,48.53
2024-02-26T11:58:15.910Z,47.00
2024-02-26T11:59:15.941Z,47.87
2024-02-26T12:00:15.993Z,47.43
2024-02-26T12:01:16.001Z,48.90
2024-02-26T12:02:16.029Z,47.18
2024-02-26T12:03:16.249Z,49.31
2024-02-26T12:04:16.096Z,50.75
2024-02-26T12:05:16.219Z,50.47
2024-02-26T12:06:16.146Z,50.43
2024-02-26T12:07:16.132Z,52.36
2024-02-26T12:08:16.078Z,52.23
2024-02-26T12:09:16.129Z,52.03
2024-02-26T12:10:16.075Z,51.88
2024-02-26T12:11:16.077Z,51.14
2024-02-26T12:12:16.180Z,51.59
2024-02-26T12:13:18.815Z,51.78
2024-02-26T12:14:16.314Z,50.69
2024-02-26T12:15:16.339Z,49.18
2024-02-26T12:16:16.188Z,50.69
2024-02-26T12:17:16.202Z,50.45
2024-02-26T12:18:16.282Z,50.14
2024-02-26T12:19:16.227Z,50.47
2024-02-26T12:20:16.321Z,50.22
2024-02-26T12:21:16.307Z,50.98
2024-02-26T12:22:16.179Z,50.75
2024-02-26T12:23:16.176Z,51.42
2024-02-26T12:24:16.293Z,52.06
2024-02-26T12:25:16.189Z,52.53
2024-02-26T12:26:16.285Z,52.44
2024-02-26T12:27:16.325Z,51.80
2024-02-26T12:28:16.204Z,52.43
2024-02-26T12:29:16.177Z,52.48
2024-02-26T12:30:16.291Z,54.33
2024-02-26T12:31:16.230Z,50.82
2024-02-26T12:32:16.188Z,49.76
2024-02-26T12:33:16.255Z,49.57
2024-02-26T12:34:16.430Z,48.75
2024-02-26T12:35:16.269Z,48.71
2024-02-26T12:36:16.209Z,49.18
2024-02-26T12:37:16.233Z,49.91
2024-02-26T12:38:16.229Z,48.21
2024-02-26T12:39:16.349Z,47.87
2024-02-26T12:40:16.201Z,46.85
2024-02-26T12:41:16.288Z,47.65
2024-02-26T12:42:16.284Z,47.87
2024-02-26T12:43:16.213Z,48.13
2024-02-26T12:44:16.201Z,47.79
2024-02-26T12:45:16.309Z,48.46
2024-02-26T12:46:16.283Z,49.01
2024-02-26T12:47:16.210Z,49.53
2024-02-26T12:48:16.436Z,50.94
2024-02-26T12:49:16.440Z,50.67
2024-02-26T12:50:16.257Z,50.70
2024-02-26T12:51:16.240Z,51.34
2024-02-26T12:52:16.216Z,51.37
2024-02-26T12:53:16.222Z,52.09